KLFK/LFK METAR and TAF weather

Enter ICAO airport designator
Station Type Date Time Source
KLFK METAR 2021/01/27 13:53 UTC NOAA

KLFK 271353Z AUTO 00000KT 10SM CLR 10/04 A3015 RMK AO2 SLP207 T01000039


Station Type Date Time Source
KLFK Decoded METAR 2021/01/27 13:53 UTC NOAA

LUFKIN ANGELINA COUNTY AIRPORT , TX, United States (KLFK) 31-14N 94-45W 88M
Jan 27, 2021 - 08:53 AM EST / 2021.01.27 1353 UTC
Wind: Calm:0
Visibility: 10 mile(s):0
Sky conditions: clear
Temperature: 50.0 F (10.0 C)
Dew Point: 39.0 F (3.9 C)
Relative Humidity: 65%
Pressure (altimeter): 30.15 in. Hg (1020 hPa)
ob: KLFK 271353Z AUTO 00000KT 10SM CLR 10/04 A3015 RMK AO2 SLP207 T01000039
cycle: 14

Station Type Date Time Source
KLFK TAF 2021/01/27 13:58 UTC NOAA

TAF
AMD KLFK 271257Z 2713/2812 36005KT P6SM SCT250
FM271500 33011G17KT P6SM FEW100 SCT250
FM280000 34005KT P6SM SCT250
FM280900 01003KT P6SM SKC

Example: see airport list